Time,TemperatureF,DewpointF,PressureIn,WindDirection,WindDirectionDegrees,WindSpeedMPH,WindSpeedGustMPH,Humidity,HourlyPrecipIn,Conditions,Clouds,dailyrainin,SoftwareType,DateUTC
2013-04-01 00:02:00,59.0,38.0,29.84,SW,225,3.0,7.0,45,0.00,,,0.00,,2013-04-01 07:02:00,
2013-04-01 00:12:00,59.0,38.0,29.84,SW,225,3.0,7.0,45,0.00,,,0.00,,2013-04-01 07:12:00,
2013-04-01 00:22:00,58.0,37.0,29.84,SW,229,1.0,3.0,46,0.00,,,0.00,,2013-04-01 07:22:00,
2013-04-01 00:32:00,56.0,38.0,29.84,SW,229,1.0,2.0,51,0.00,,,0.00,,2013-04-01 07:32:00,
2013-04-01 00:42:00,56.0,38.0,29.84,SW,229,1.0,2.0,51,0.00,,,0.00,,2013-04-01 07:42:00,
2013-04-01 00:52:00,56.0,38.0,29.84,SSW,207,0.0,3.0,51,0.00,,,0.00,,2013-04-01 07:52:00,
2013-04-01 01:02:00,53.0,37.0,29.84,NE,34,2.0,4.0,55,0.00,,,0.00,,2013-04-01 08:02:00,
2013-04-01 01:12:00,53.0,37.0,29.84,NE,34,2.0,4.0,55,0.00,,,0.00,,2013-04-01 08:12:00,
2013-04-01 01:21:00,54.0,37.0,29.84,NW,311,2.0,5.0,53,0.00,,,0.00,,2013-04-01 08:21:00,
2013-04-01 01:32:00,53.0,37.0,29.84,WNW,297,5.0,7.0,54,0.00,,,0.00,,2013-04-01 08:32:00,
2013-04-01 01:43:00,53.0,37.0,29.84,WNW,297,5.0,7.0,54,0.00,,,0.00,,2013-04-01 08:43:00,
2013-04-01 01:52:00,53.0,37.0,29.85,NW,325,4.0,6.0,55,0.00,,,0.00,,2013-04-01 08:52:00,
2013-04-01 02:02:00,53.0,37.0,29.85,NW,309,4.0,6.0,55,0.00,,,0.00,,2013-04-01 09:02:00,
2013-04-01 02:12:00,53.0,37.0,29.85,NW,309,4.0,6.0,55,0.00,,,0.00,,2013-04-01 09:12:00,
2013-04-01 02:22:00,53.0,38.0,29.85,WNW,300,2.0,6.0,56,0.00,,,0.00,,2013-04-01 09:22:00,
2013-04-01 02:33:00,54.0,38.0,29.85,WNW,299,2.0,3.0,54,0.00,,,0.00,,2013-04-01 09:33:00,
2013-04-01 02:42:00,54.0,38.0,29.85,WNW,299,2.0,3.0,54,0.00,,,0.00,,2013-04-01 09:42:00,
2013-04-01 02:52:00,53.0,37.0,29.85,NW,305,2.0,3.0,55,0.00,,,0.00,,2013-04-01 09:52:00,
2013-04-01 03:02:00,54.0,37.0,29.85,WNW,294,3.0,4.0,52,0.00,,,0.00,,2013-04-01 10:02:00,
2013-04-01 03:12:00,54.0,37.0,29.85,WNW,294,3.0,4.0,52,0.00,,,0.00,,2013-04-01 10:12:00,
2013-04-01 03:22:00,56.0,37.0,29.85,NW,307,4.0,6.0,49,0.00,,,0.00,,2013-04-01 10:22:00,
2013-04-01 03:33:00,50.0,36.0,29.85,NNE,16,1.0,3.0,58,0.00,,,0.00,,2013-04-01 10:33:00,
2013-04-01 03:42:00,50.0,36.0,29.85,NNE,16,1.0,3.0,58,0.00,,,0.00,,2013-04-01 10:42:00,
2013-04-01 03:52:00,49.0,36.0,29.86,NNW,340,0.0,0.0,60,0.00,,,0.00,,2013-04-01 10:52:00,
2013-04-01 04:02:00,47.0,35.0,29.86,NNW,338,1.0,1.0,64,0.00,,,0.00,,2013-04-01 11:02:00,
2013-04-01 04:12:00,47.0,35.0,29.86,NNW,338,1.0,1.0,64,0.00,,,0.00,,2013-04-01 11:12:00,
2013-04-01 04:22:00,47.0,35.0,29.86,West,266,1.0,4.0,63,0.00,,,0.00,,2013-04-01 11:22:00,
2013-04-01 04:32:00,48.0,36.0,29.85,SSW,203,0.0,2.0,64,0.00,,,0.00,,2013-04-01 11:32:00,
2013-04-01 04:42:00,48.0,36.0,29.85,SSW,203,0.0,2.0,64,0.00,,,0.00,,2013-04-01 11:42:00,
2013-04-01 04:52:00,49.0,37.0,29.86,WSW,239,0.0,2.0,62,0.00,,,0.00,,2013-04-01 11:52:00,
2013-04-01 05:02:00,49.0,36.0,29.86,SW,217,3.0,5.0,61,0.00,,,0.00,,2013-04-01 12:02:00,
2013-04-01 05:12:00,49.0,36.0,29.86,SW,217,3.0,5.0,61,0.00,,,0.00,,2013-04-01 12:12:00,
2013-04-01 05:22:00,49.0,37.0,29.86,SW,219,7.0,10.0,64,0.00,,,0.00,,2013-04-01 12:22:00,
2013-04-01 05:32:00,48.0,37.0,29.86,SW,217,5.0,10.0,65,0.00,,,0.00,,2013-04-01 12:32:00,
2013-04-01 05:42:00,48.0,37.0,29.86,SW,217,5.0,10.0,65,0.00,,,0.00,,2013-04-01 12:42:00,
2013-04-01 05:52:00,47.0,37.0,29.87,WSW,239,6.0,11.0,68,0.00,,,0.00,,2013-04-01 12:52:00,
2013-04-01 06:02:00,48.0,37.0,29.87,SW,235,7.0,9.0,65,0.00,,,0.00,,2013-04-01 13:02:00,
2013-04-01 06:12:00,48.0,37.0,29.87,SW,235,7.0,9.0,65,0.00,,,0.00,,2013-04-01 13:12:00,
2013-04-01 06:22:00,48.0,36.0,29.87,SSW,209,2.0,7.0,63,0.00,,,0.00,,2013-04-01 13:22:00,
2013-04-01 06:32:00,46.0,36.0,29.88,SSE,155,0.0,5.0,68,0.00,,,0.00,,2013-04-01 13:32:00,
2013-04-01 06:42:00,46.0,36.0,29.88,SSE,155,0.0,5.0,68,0.00,,,0.00,,2013-04-01 13:42:00,
2013-04-01 06:52:00,45.0,36.0,29.88,SSE,153,0.0,1.0,71,0.00,,,0.00,,2013-04-01 13:52:00,
2013-04-01 07:02:00,45.0,36.0,29.88,SSE,153,0.0,1.0,71,0.00,,,0.00,,2013-04-01 14:02:00,
2013-04-01 07:12:00,45.0,36.0,29.88,SSE,153,0.0,1.0,71,0.00,,,0.00,,2013-04-01 14:12:00,
2013-04-01 07:22:00,46.0,37.0,29.88,SSE,153,0.0,0.0,71,0.00,,,0.00,,2013-04-01 14:22:00,
2013-04-01 07:32:00,48.0,37.0,29.89,SSW,211,2.0,3.0,66,0.00,,,0.00,,2013-04-01 14:32:00,
2013-04-01 07:42:00,48.0,37.0,29.89,SSW,211,2.0,3.0,66,0.00,,,0.00,,2013-04-01 14:42:00,
2013-04-01 07:52:00,50.0,38.0,29.89,SW,215,1.0,3.0,63,0.00,,,0.00,,2013-04-01 14:52:00,
2013-04-01 08:02:00,47.0,37.0,29.89,NE,35,0.0,3.0,68,0.00,,,0.00,,2013-04-01 15:02:00,
2013-04-01 08:12:00,47.0,37.0,29.89,NE,35,0.0,3.0,68,0.00,,,0.00,,2013-04-01 15:12:00,
2013-04-01 08:22:00,48.0,39.0,29.89,ENE,67,1.0,2.0,71,0.00,,,0.00,,2013-04-01 15:22:00,
2013-04-01 08:33:00,49.0,40.0,29.90,ENE,68,2.0,3.0,71,0.00,,,0.00,,2013-04-01 15:33:00,
2013-04-01 08:43:00,49.0,40.0,29.90,ENE,68,2.0,3.0,71,0.00,,,0.00,,2013-04-01 15:43:00,
2013-04-01 08:53:00,51.0,41.0,29.90,ENE,65,4.0,5.0,69,0.00,,,0.00,,2013-04-01 15:53:00,
2013-04-01 09:02:00,52.0,41.0,29.90,NE,49,4.0,6.0,67,0.00,,,0.00,,2013-04-01 16:02:00,
2013-04-01 09:12:00,52.0,41.0,29.90,NE,49,4.0,6.0,67,0.00,,,0.00,,2013-04-01 16:12:00,
2013-04-01 09:22:00,54.0,41.0,29.91,NE,52,6.0,6.0,61,0.00,,,0.00,,2013-04-01 16:22:00,
2013-04-01 09:33:00,55.0,41.0,29.91,ENE,58,5.0,6.0,58,0.00,,,0.00,,2013-04-01 16:33:00,
2013-04-01 09:42:00,55.0,41.0,29.91,ENE,58,5.0,6.0,58,0.00,,,0.00,,2013-04-01 16:42:00,
2013-04-01 09:52:00,57.0,41.0,29.91,ENE,59,5.0,7.0,55,0.00,,,0.00,,2013-04-01 16:52:00,
2013-04-01 10:03:00,58.0,39.0,29.92,ENE,67,4.0,7.0,49,0.00,,,0.00,,2013-04-01 17:03:00,
2013-04-01 10:12:00,58.0,39.0,29.92,ENE,67,4.0,7.0,49,0.00,,,0.00,,2013-04-01 17:12:00,
2013-04-01 10:22:00,58.0,39.0,29.92,ENE,67,4.0,7.0,49,0.00,,,0.00,,2013-04-01 17:22:00,
2013-04-01 10:32:00,58.0,39.0,29.92,ENE,67,4.0,7.0,49,0.00,,,0.00,,2013-04-01 17:32:00,
2013-04-01 10:53:00,61.0,40.0,29.92,East,84,2.0,5.0,46,0.00,,,0.00,,2013-04-01 17:53:00,
2013-04-01 11:02:00,63.0,41.0,29.92,East,85,2.0,5.0,44,0.00,,,0.00,,2013-04-01 18:02:00,
2013-04-01 11:12:00,63.0,41.0,29.92,East,85,2.0,5.0,44,0.00,,,0.00,,2013-04-01 18:12:00,
2013-04-01 11:22:00,64.0,41.0,29.92,SE,128,1.0,4.0,43,0.00,,,0.00,,2013-04-01 18:22:00,
2013-04-01 11:32:00,66.0,42.0,29.92,SSE,150,3.0,7.0,41,0.00,,,0.00,,2013-04-01 18:32:00,
2013-04-01 11:42:00,66.0,42.0,29.92,SSE,150,3.0,7.0,41,0.00,,,0.00,,2013-04-01 18:42:00,
2013-04-01 11:52:00,67.0,42.0,29.92,SSW,198,5.0,8.0,40,0.00,,,0.00,,2013-04-01 18:52:00,
2013-04-01 12:03:00,67.0,41.0,29.91,South,169,3.0,8.0,39,0.00,,,0.00,,2013-04-01 19:03:00,
2013-04-01 12:12:00,67.0,41.0,29.91,South,169,3.0,8.0,39,0.00,,,0.00,,2013-04-01 19:12:00,
2013-04-01 12:22:00,67.0,41.0,29.91,South,169,3.0,8.0,39,0.00,,,0.00,,2013-04-01 19:22:00,
2013-04-01 12:32:00,68.0,41.0,29.91,ESE,113,5.0,10.0,38,0.00,,,0.00,,2013-04-01 19:32:00,
2013-04-01 12:42:00,68.0,41.0,29.91,ESE,113,5.0,10.0,38,0.00,,,0.00,,2013-04-01 19:42:00,
2013-04-01 12:53:00,69.0,40.0,29.91,SSE,149,7.0,11.0,35,0.00,,,0.00,,2013-04-01 19:53:00,
2013-04-01 13:02:00,70.0,41.0,29.90,West,277,3.0,9.0,35,0.00,,,0.00,,2013-04-01 20:02:00,
2013-04-01 13:12:00,70.0,41.0,29.90,West,277,3.0,9.0,35,0.00,,,0.00,,2013-04-01 20:12:00,
2013-04-01 13:22:00,70.0,43.0,29.89,SSE,162,4.0,11.0,38,0.00,,,0.00,,2013-04-01 20:22:00,
2013-04-01 13:32:00,71.0,42.0,29.89,SE,133,2.0,9.0,35,0.00,,,0.00,,2013-04-01 20:32:00,
2013-04-01 13:42:00,71.0,42.0,29.89,SE,133,2.0,9.0,35,0.00,,,0.00,,2013-04-01 20:42:00,
2013-04-01 13:52:00,71.0,42.0,29.89,SE,133,2.0,9.0,35,0.00,,,0.00,,2013-04-01 20:52:00,
2013-04-01 14:02:00,73.0,41.0,29.88,SSE,159,12.0,21.0,32,0.00,,,0.00,,2013-04-01 21:02:00,
2013-04-01 14:11:00,73.0,41.0,29.88,SSE,159,12.0,21.0,32,0.00,,,0.00,,2013-04-01 21:11:00,
2013-04-01 14:22:00,73.0,41.0,29.88,SSE,167,10.0,17.0,32,0.00,,,0.00,,2013-04-01 21:22:00,
2013-04-01 14:32:00,74.0,41.0,29.87,SE,145,9.0,19.0,31,0.00,,,0.00,,2013-04-01 21:32:00,
2013-04-01 14:43:00,74.0,41.0,29.87,SE,145,9.0,19.0,31,0.00,,,0.00,,2013-04-01 21:43:00,
2013-04-01 14:52:00,74.0,42.0,29.87,SSE,163,9.0,16.0,32,0.00,,,0.00,,2013-04-01 21:52:00,
2013-04-01 15:02:00,75.0,41.0,29.86,SSW,194,13.0,19.0,30,0.00,,,0.00,,2013-04-01 22:02:00,
2013-04-01 15:12:00,75.0,41.0,29.86,SSW,194,13.0,19.0,30,0.00,,,0.00,,2013-04-01 22:12:00,
2013-04-01 15:22:00,75.0,41.0,29.86,SSE,166,12.0,18.0,29,0.00,,,0.00,,2013-04-01 22:22:00,
2013-04-01 15:33:00,75.0,40.0,29.85,SSE,165,10.0,18.0,28,0.00,,,0.00,,2013-04-01 22:33:00,
2013-04-01 15:42:00,75.0,40.0,29.85,SSE,165,10.0,18.0,28,0.00,,,0.00,,2013-04-01 22:42:00,
2013-04-01 15:52:00,75.0,39.0,29.85,SSW,212,14.0,21.0,27,0.00,,,0.00,,2013-04-01 22:52:00,
2013-04-01 16:02:00,76.0,40.0,29.85,SE,143,10.0,17.0,27,0.00,,,0.00,,2013-04-01 23:02:00,
2013-04-01 16:11:00,76.0,40.0,29.85,SE,143,10.0,17.0,27,0.00,,,0.00,,2013-04-01 23:11:00,
2013-04-01 16:22:00,76.0,40.0,29.84,SSW,211,16.0,21.0,27,0.00,,,0.00,,2013-04-01 23:22:00,
2013-04-01 16:32:00,76.0,40.0,29.84,SSW,207,11.0,21.0,27,0.00,,,0.00,,2013-04-01 23:32:00,
2013-04-01 16:42:00,76.0,40.0,29.84,SSW,207,11.0,21.0,27,0.00,,,0.00,,2013-04-01 23:42:00,
2013-04-01 16:52:00,76.0,39.0,29.84,South,179,11.0,17.0,26,0.00,,,0.00,,2013-04-01 23:52:00,
2013-04-01 17:02:00,76.0,39.0,29.84,South,174,14.0,19.0,26,0.00,,,0.00,,2013-04-02 00:02:00,
2013-04-01 17:11:00,76.0,39.0,29.84,South,174,14.0,19.0,26,0.00,,,0.00,,2013-04-02 00:11:00,
2013-04-01 17:22:00,76.0,37.0,29.84,SSW,210,11.0,17.0,24,0.00,,,0.00,,2013-04-02 00:22:00,
2013-04-01 17:32:00,76.0,38.0,29.84,South,181,8.0,13.0,25,0.00,,,0.00,,2013-04-02 00:32:00,
2013-04-01 17:42:00,76.0,38.0,29.84,South,181,8.0,13.0,25,0.00,,,0.00,,2013-04-02 00:42:00,
2013-04-01 17:52:00,76.0,38.0,29.84,SW,217,10.0,14.0,25,0.00,,,0.00,,2013-04-02 00:52:00,
2013-04-01 18:02:00,76.0,39.0,29.84,SW,215,8.0,13.0,26,0.00,,,0.00,,2013-04-02 01:02:00,
2013-04-01 18:11:00,76.0,39.0,29.84,SW,215,8.0,13.0,26,0.00,,,0.00,,2013-04-02 01:11:00,
2013-04-01 18:22:00,76.0,39.0,29.84,SW,231,8.0,10.0,26,0.00,,,0.00,,2013-04-02 01:22:00,
2013-04-01 18:32:00,76.0,40.0,29.84,SW,233,5.0,12.0,27,0.00,,,0.00,,2013-04-02 01:32:00,
2013-04-01 18:42:00,76.0,40.0,29.84,SW,233,5.0,12.0,27,0.00,,,0.00,,2013-04-02 01:42:00,
2013-04-01 18:52:00,75.0,41.0,29.83,SW,224,5.0,8.0,30,0.00,,,0.00,,2013-04-02 01:52:00,
2013-04-01 19:02:00,75.0,41.0,29.84,South,184,10.0,14.0,30,0.00,,,0.00,,2013-04-02 02:02:00,
2013-04-01 19:12:00,75.0,41.0,29.84,South,184,10.0,14.0,30,0.00,,,0.00,,2013-04-02 02:12:00,
2013-04-01 19:21:00,72.0,41.0,29.84,SW,219,8.0,11.0,33,0.00,,,0.00,,2013-04-02 02:21:00,
2013-04-01 19:32:00,72.0,41.0,29.84,SW,219,8.0,11.0,33,0.00,,,0.00,,2013-04-02 02:32:00,
2013-04-01 19:42:00,72.0,41.0,29.84,SW,219,8.0,11.0,33,0.00,,,0.00,,2013-04-02 02:42:00,
2013-04-01 19:52:00,69.0,43.0,29.84,SW,219,6.0,8.0,39,0.00,,,0.00,,2013-04-02 02:52:00,
2013-04-01 20:02:00,68.0,45.0,29.85,SW,225,8.0,10.0,44,0.00,,,0.00,,2013-04-02 03:02:00,
2013-04-01 20:12:00,68.0,45.0,29.85,SW,225,8.0,10.0,44,0.00,,,0.00,,2013-04-02 03:12:00,
2013-04-01 20:21:00,67.0,46.0,29.85,SSW,208,7.0,11.0,47,0.00,,,0.00,,2013-04-02 03:21:00,
2013-04-01 20:33:00,66.0,46.0,29.85,WSW,242,6.0,9.0,49,0.00,,,0.00,,2013-04-02 03:33:00,
2013-04-01 20:42:00,66.0,46.0,29.85,WSW,242,6.0,9.0,49,0.00,,,0.00,,2013-04-02 03:42:00,
2013-04-01 20:52:00,66.0,46.0,29.86,SW,214,7.0,10.0,49,0.00,,,0.00,,2013-04-02 03:52:00,
2013-04-01 21:02:00,65.0,46.0,29.87,SW,225,8.0,12.0,51,0.00,,,0.00,,2013-04-02 04:02:00,
2013-04-01 21:12:00,65.0,46.0,29.87,SW,225,8.0,12.0,51,0.00,,,0.00,,2013-04-02 04:12:00,
2013-04-01 21:22:00,65.0,47.0,29.87,SW,219,10.0,12.0,53,0.00,,,0.00,,2013-04-02 04:22:00,
2013-04-01 21:32:00,64.0,47.0,29.88,NW,309,4.0,9.0,53,0.00,,,0.00,,2013-04-02 04:32:00,
2013-04-01 21:42:00,64.0,47.0,29.88,NW,309,4.0,9.0,53,0.00,,,0.00,,2013-04-02 04:42:00,
2013-04-01 21:52:00,64.0,47.0,29.90,SSE,166,1.0,8.0,54,0.00,,,0.00,,2013-04-02 04:52:00,
2013-04-01 22:02:00,63.0,47.0,29.90,SSW,208,6.0,11.0,55,0.00,,,0.00,,2013-04-02 05:02:00,
2013-04-01 22:11:00,63.0,47.0,29.90,SSW,208,6.0,11.0,55,0.00,,,0.00,,2013-04-02 05:11:00,
2013-04-01 22:22:00,61.0,46.0,29.90,SW,219,1.0,5.0,58,0.00,,,0.00,,2013-04-02 05:22:00,
2013-04-01 22:32:00,61.0,46.0,29.90,SW,219,1.0,5.0,58,0.00,,,0.00,,2013-04-02 05:32:00,
2013-04-01 22:42:00,61.0,46.0,29.90,SW,219,1.0,5.0,58,0.00,,,0.00,,2013-04-02 05:42:00,
2013-04-01 22:52:00,59.0,46.0,29.91,WSW,257,2.0,5.0,62,0.00,,,0.00,,2013-04-02 05:52:00,
2013-04-01 23:02:00,59.0,46.0,29.91,WSW,257,2.0,5.0,62,0.00,,,0.00,,2013-04-02 06:02:00,
2013-04-01 23:12:00,59.0,46.0,29.91,WSW,257,2.0,5.0,62,0.00,,,0.00,,2013-04-02 06:12:00,
2013-04-01 23:22:00,57.0,45.0,29.91,South,188,2.0,9.0,65,0.00,,,0.00,,2013-04-02 06:22:00,
2013-04-01 23:32:00,57.0,45.0,29.91,South,188,2.0,9.0,65,0.00,,,0.00,,2013-04-02 06:32:00,
2013-04-01 23:42:00,57.0,45.0,29.91,South,188,2.0,9.0,65,0.00,,,0.00,,2013-04-02 06:42:00,
2013-04-01 23:52:00,56.0,44.0,29.91,WNW,284,3.0,6.0,65,0.00,,,0.00,,2013-04-02 06:52:00,